createdAt,value
2019-04-06T00:00:34.051Z,6.95
2019-04-06T00:02:38.216Z,6.85
2019-04-06T00:03:38.492Z,6.89
2019-04-06T00:05:42.624Z,6.79
2019-04-06T00:06:42.861Z,6.62
2019-04-06T00:08:48.019Z,6.69
2019-04-06T00:09:48.258Z,6.64
2019-04-06T00:11:52.425Z,6.64
2019-04-06T00:12:52.677Z,6.52
2019-04-06T00:14:56.814Z,6.46
2019-04-06T00:15:57.050Z,6.43
2019-04-06T00:18:01.216Z,6.49
2019-04-06T00:19:01.446Z,6.44
2019-04-06T00:21:05.606Z,6.54
2019-04-06T00:22:05.842Z,6.48
2019-04-06T00:24:10.011Z,6.55
2019-04-06T00:25:10.249Z,6.56
2019-04-06T00:27:14.416Z,6.67
2019-04-06T00:28:14.655Z,6.52
2019-04-06T00:30:07.819Z,6.62
2019-04-06T00:31:07.962Z,6.70
2019-04-06T00:33:12.135Z,6.66
2019-04-06T00:34:12.365Z,6.71
2019-04-06T00:36:16.544Z,6.70
2019-04-06T00:37:16.773Z,6.61
2019-04-06T00:39:20.921Z,6.62
2019-04-06T00:40:21.156Z,6.55
2019-04-06T00:42:25.321Z,6.85
2019-04-06T00:43:25.561Z,6.84
2019-04-06T00:45:29.708Z,6.76
2019-04-06T00:46:29.936Z,6.71
2019-04-06T00:48:34.105Z,6.77
2019-04-06T00:49:34.342Z,6.84
2019-04-06T00:51:38.519Z,6.94
2019-04-06T00:52:38.749Z,6.92
2019-04-06T00:54:42.895Z,7.02
2019-04-06T00:55:43.130Z,7.02
2019-04-06T00:57:47.301Z,7.07
2019-04-06T00:58:47.536Z,7.09
2019-04-06T01:00:51.683Z,7.09
2019-04-06T01:01:51.982Z,7.05
2019-04-06T01:03:56.089Z,7.21
2019-04-06T01:04:56.327Z,7.23
2019-04-06T01:07:00.471Z,7.25
2019-04-06T01:08:00.707Z,7.17
2019-04-06T01:09:53.809Z,7.06
2019-04-06T01:10:54.060Z,7.09
2019-04-06T01:12:58.220Z,7.06
2019-04-06T01:13:58.459Z,7.17
2019-04-06T01:16:02.618Z,7.09
2019-04-06T01:17:02.929Z,7.09
2019-04-06T01:19:07.020Z,6.98
2019-04-06T01:20:07.256Z,6.87
2019-04-06T01:22:11.404Z,6.85
2019-04-06T01:23:11.642Z,6.89
2019-04-06T01:25:15.817Z,6.88
2019-04-06T01:26:16.053Z,6.70
2019-04-06T01:28:20.229Z,6.69
2019-04-06T01:29:20.466Z,6.52
2019-04-06T01:31:25.628Z,6.66
2019-04-06T01:32:25.944Z,6.71
2019-04-06T01:34:30.031Z,6.70
2019-04-06T01:35:30.263Z,6.67
2019-04-06T01:37:34.433Z,6.77
2019-04-06T01:38:34.665Z,6.66
2019-04-06T01:40:27.744Z,6.64
2019-04-06T01:41:27.979Z,6.66
2019-04-06T01:43:32.147Z,6.54
2019-04-06T01:44:32.383Z,6.52
2019-04-06T01:46:36.539Z,6.61
2019-04-06T01:47:36.772Z,6.66
2019-04-06T01:49:40.939Z,6.88
2019-04-06T01:50:41.175Z,7.05
2019-04-06T01:52:45.344Z,7.15
2019-04-06T01:53:45.579Z,7.07
2019-04-06T01:55:49.748Z,7.07
2019-04-06T01:56:49.982Z,7.09
2019-04-06T01:58:54.237Z,7.30
2019-04-06T01:59:54.387Z,7.32
2019-04-06T02:01:58.532Z,7.32
2019-04-06T02:02:58.768Z,7.45
2019-04-06T02:05:02.940Z,7.48
2019-04-06T02:06:03.178Z,7.45
2019-04-06T02:08:07.325Z,7.46
2019-04-06T02:09:07.565Z,7.50
2019-04-06T02:11:11.771Z,7.49
2019-04-06T02:12:11.990Z,7.48
2019-04-06T02:14:16.167Z,7.48
2019-04-06T02:15:16.404Z,7.35
2019-04-06T02:17:20.555Z,7.40
2019-04-06T02:18:20.791Z,7.43
2019-04-06T02:20:13.922Z,7.46
2019-04-06T02:21:14.131Z,7.42
2019-04-06T02:23:18.280Z,7.42
2019-04-06T02:24:18.517Z,7.32
2019-04-06T02:26:30.095Z,7.37
2019-04-06T02:27:22.947Z,7.30
2019-04-06T02:29:27.114Z,7.45
2019-04-06T02:30:27.353Z,7.39
2019-04-06T02:32:31.521Z,7.53
2019-04-06T02:33:31.773Z,7.53
2019-04-06T02:35:35.926Z,7.71
2019-04-06T02:36:36.221Z,7.71
2019-04-06T02:38:40.398Z,7.79
2019-04-06T02:39:40.551Z,7.77
2019-04-06T02:41:45.738Z,7.79
2019-04-06T02:42:45.969Z,7.83
2019-04-06T02:44:50.221Z,7.79
2019-04-06T02:45:50.382Z,7.79
2019-04-06T02:47:54.527Z,7.79
2019-04-06T02:48:54.790Z,7.86
2019-04-06T02:50:58.932Z,7.77
2019-04-06T02:51:59.168Z,7.77
2019-04-06T02:54:03.321Z,7.68
2019-04-06T02:55:03.552Z,7.61
2019-04-06T02:57:07.831Z,7.52
2019-04-06T02:58:07.960Z,7.45
2019-04-06T03:00:01.135Z,7.50
2019-04-06T03:01:01.278Z,7.46
2019-04-06T03:03:05.446Z,7.39
2019-04-06T03:04:05.682Z,7.31
2019-04-06T03:06:09.857Z,7.28
2019-04-06T03:07:10.090Z,7.42
2019-04-06T03:09:14.258Z,7.37
2019-04-06T03:10:14.480Z,7.39
2019-04-06T03:12:18.646Z,7.48
2019-04-06T03:13:18.910Z,7.46
2019-04-06T03:15:24.061Z,7.49
2019-04-06T03:16:24.298Z,7.58
2019-04-06T03:18:28.467Z,7.67
2019-04-06T03:19:28.732Z,7.67
2019-04-06T03:21:32.875Z,7.69
2019-04-06T03:22:33.127Z,7.71
2019-04-06T03:24:37.262Z,7.79
2019-04-06T03:25:37.508Z,7.80
2019-04-06T03:27:41.771Z,7.79
2019-04-06T03:28:41.902Z,7.86
2019-04-06T03:30:46.066Z,7.82
2019-04-06T03:31:46.302Z,7.82
2019-04-06T03:33:50.473Z,7.92
2019-04-06T03:34:50.708Z,7.92
2019-04-06T03:36:54.883Z,7.90
2019-04-06T03:37:55.111Z,7.87
2019-04-06T03:39:48.193Z,7.93
2019-04-06T03:40:48.429Z,7.93
2019-04-06T03:42:52.602Z,8.00
2019-04-06T03:43:52.833Z,7.93
2019-04-06T03:45:57.081Z,8.00
2019-04-06T03:46:57.224Z,7.93
2019-04-06T03:49:01.405Z,8.01
2019-04-06T03:50:01.630Z,7.93
2019-04-06T03:52:05.807Z,7.92
2019-04-06T03:53:06.042Z,7.83
2019-04-06T03:55:10.193Z,7.89
2019-04-06T03:56:10.429Z,7.80
2019-04-06T03:58:14.602Z,7.80
2019-04-06T03:59:14.836Z,7.72
2019-04-06T04:01:18.992Z,7.77
2019-04-06T04:02:19.234Z,7.74
2019-04-06T04:04:23.397Z,7.74
2019-04-06T04:05:23.885Z,7.63
2019-04-06T04:07:27.808Z,7.63
2019-04-06T04:08:28.044Z,7.60
2019-04-06T04:10:21.141Z,7.61
2019-04-06T04:11:21.376Z,7.57
2019-04-06T04:13:25.557Z,7.58
2019-04-06T04:14:25.801Z,7.67
2019-04-06T04:16:29.969Z,7.79
2019-04-06T04:17:30.178Z,7.63
2019-04-06T04:19:34.342Z,7.71
2019-04-06T04:20:34.581Z,7.72
2019-04-06T04:22:38.751Z,7.77
2019-04-06T04:23:38.996Z,7.72
2019-04-06T04:25:43.137Z,7.75
2019-04-06T04:26:43.369Z,7.72
2019-04-06T04:28:47.538Z,7.77
2019-04-06T04:29:47.814Z,7.92
2019-04-06T04:31:51.929Z,7.82
2019-04-06T04:32:52.291Z,7.90
2019-04-06T04:34:56.333Z,7.87
2019-04-06T04:35:56.625Z,7.82
2019-04-06T04:38:00.768Z,7.82
2019-04-06T04:39:00.968Z,7.89
2019-04-06T04:41:05.305Z,7.80
2019-04-06T04:42:05.351Z,7.80
2019-04-06T04:44:09.640Z,7.79
2019-04-06T04:45:09.766Z,7.71
2019-04-06T04:47:13.911Z,7.63
2019-04-06T04:48:14.145Z,7.55
2019-04-06T04:50:07.269Z,7.46
2019-04-06T04:51:07.496Z,7.46
2019-04-06T04:53:11.724Z,7.40
2019-04-06T04:54:11.898Z,7.40
2019-04-06T04:56:16.047Z,7.27
2019-04-06T04:57:16.283Z,7.34
2019-04-06T04:59:21.490Z,7.39
2019-04-06T05:00:21.727Z,7.27
2019-04-06T05:02:25.941Z,7.46
2019-04-06T05:03:26.109Z,7.39
2019-04-06T05:05:30.307Z,7.27
2019-04-06T05:06:30.507Z,7.31
2019-04-06T05:08:34.669Z,7.43
2019-04-06T05:09:34.905Z,7.42
2019-04-06T05:11:39.058Z,7.50
2019-04-06T05:12:39.290Z,7.49
2019-04-06T05:14:43.462Z,7.52
2019-04-06T05:15:43.696Z,7.58
2019-04-06T05:17:47.849Z,7.53
2019-04-06T05:18:48.087Z,7.53
2019-04-06T05:20:52.251Z,7.53
2019-04-06T05:21:52.485Z,7.52
2019-04-06T05:23:56.651Z,7.42
2019-04-06T05:24:56.905Z,7.49
2019-04-06T05:27:01.031Z,7.48
2019-04-06T05:28:01.270Z,7.52
2019-04-06T05:29:54.361Z,7.64
2019-04-06T05:30:54.597Z,7.63
2019-04-06T05:32:58.746Z,7.71
2019-04-06T05:33:59.058Z,7.67
2019-04-06T05:36:03.197Z,7.80
2019-04-06T05:37:03.442Z,7.80
2019-04-06T05:39:07.649Z,7.77
2019-04-06T05:40:07.839Z,7.85
2019-04-06T05:42:11.984Z,8.00
2019-04-06T05:43:12.217Z,8.05
2019-04-06T05:45:16.386Z,8.01
2019-04-06T05:46:16.801Z,8.05
2019-04-06T05:48:20.776Z,8.07
2019-04-06T05:49:21.027Z,8.08
2019-04-06T05:51:25.182Z,8.18
2019-04-06T05:52:25.423Z,8.07
2019-04-06T05:54:29.586Z,8.30
2019-04-06T05:55:29.870Z,8.34
2019-04-06T05:57:33.969Z,8.53
2019-04-06T05:58:34.207Z,8.63
2019-04-06T06:00:27.305Z,8.66
2019-04-06T06:01:27.539Z,8.81
2019-04-06T06:03:31.731Z,8.94
2019-04-06T06:04:31.963Z,8.92
2019-04-06T06:06:36.136Z,9.04
2019-04-06T06:07:36.373Z,9.13
2019-04-06T06:09:40.541Z,9.26
2019-04-06T06:10:40.912Z,9.20
2019-04-06T06:12:44.952Z,9.38
2019-04-06T06:13:45.187Z,9.47
2019-04-06T06:15:49.558Z,9.58
2019-04-06T06:16:49.613Z,9.61
2019-04-06T06:18:53.763Z,9.76
2019-04-06T06:19:53.992Z,9.97
2019-04-06T06:21:58.167Z,10.27
2019-04-06T06:22:58.409Z,10.48
2019-04-06T06:25:03.055Z,10.84
2019-04-06T06:26:02.813Z,10.99
2019-04-06T06:28:14.147Z,11.52
2019-04-06T06:29:07.217Z,11.80
2019-04-06T06:31:11.383Z,12.28
2019-04-06T06:32:11.624Z,12.32
2019-04-06T06:34:15.773Z,12.54
2019-04-06T06:35:16.010Z,12.86
2019-04-06T06:37:20.181Z,13.41
2019-04-06T06:38:20.587Z,13.41
2019-04-06T06:40:13.510Z,13.19
2019-04-06T06:41:13.733Z,13.25
2019-04-06T06:43:17.905Z,12.93
2019-04-06T06:44:18.142Z,13.00
2019-04-06T06:46:22.411Z,12.82
2019-04-06T06:47:22.565Z,12.64
2019-04-06T06:49:26.717Z,12.29
2019-04-06T06:50:26.960Z,12.16
2019-04-06T06:52:31.271Z,11.88
2019-04-06T06:53:31.377Z,11.32
2019-04-06T06:55:35.537Z,10.33
2019-04-06T06:56:35.784Z,9.96
2019-04-06T06:58:39.927Z,9.75
2019-04-06T06:59:40.168Z,9.64
2019-04-06T07:01:44.485Z,9.64
2019-04-06T07:02:44.578Z,9.89
2019-04-06T07:04:48.729Z,10.63
2019-04-06T07:05:48.971Z,10.86
2019-04-06T07:07:53.139Z,11.27
2019-04-06T07:08:53.377Z,11.55
2019-04-06T07:10:57.555Z,11.75
2019-04-06T07:11:57.793Z,11.86
2019-04-06T07:14:01.971Z,12.21
2019-04-06T07:15:02.245Z,12.46
2019-04-06T07:17:06.361Z,13.17
2019-04-06T07:18:06.602Z,13.01
2019-04-06T07:19:59.689Z,12.35
2019-04-06T07:20:59.930Z,12.27
2019-04-06T07:23:04.285Z,12.35
2019-04-06T07:24:04.345Z,12.13
2019-04-06T07:26:08.520Z,11.96
2019-04-06T07:27:08.767Z,11.73
2019-04-06T07:29:12.919Z,11.65
2019-04-06T07:30:13.251Z,11.57
2019-04-06T07:32:17.335Z,11.52
2019-04-06T07:33:17.587Z,11.61
2019-04-06T07:35:21.731Z,11.17
2019-04-06T07:36:21.978Z,11.19
2019-04-06T07:38:26.148Z,11.09
2019-04-06T07:39:26.645Z,11.02
2019-04-06T07:41:30.561Z,11.07
2019-04-06T07:42:30.801Z,11.02
2019-04-06T07:44:34.965Z,11.09
2019-04-06T07:45:35.287Z,11.15
2019-04-06T07:47:39.413Z,11.18
2019-04-06T07:48:39.651Z,11.39
2019-04-06T07:50:43.904Z,11.44
2019-04-06T07:51:44.093Z,11.47
2019-04-06T07:53:48.353Z,11.73
2019-04-06T07:54:48.524Z,11.73
2019-04-06T07:56:52.728Z,12.16
2019-04-06T07:57:52.966Z,12.31
2019-04-06T07:59:46.154Z,12.49
2019-04-06T08:00:46.389Z,12.59
2019-04-06T08:02:51.579Z,12.89
2019-04-06T08:03:51.820Z,12.97
2019-04-06T08:05:55.981Z,14.42
2019-04-06T08:06:56.219Z,15.01
2019-04-06T08:09:00.408Z,16.38
2019-04-06T08:10:00.640Z,16.82
2019-04-06T08:12:04.834Z,16.33
2019-04-06T08:13:05.098Z,17.33
2019-04-06T08:15:09.301Z,19.26
2019-04-06T08:16:09.790Z,19.39
2019-04-06T08:18:13.724Z,19.91
2019-04-06T08:19:14.130Z,20.58
2019-04-06T08:21:19.690Z,21.44
2019-04-06T08:22:18.390Z,21.72
2019-04-06T08:24:22.583Z,21.79
2019-04-06T08:25:22.837Z,21.69
2019-04-06T08:27:26.994Z,22.07
2019-04-06T08:28:27.241Z,22.24
2019-04-06T08:30:20.363Z,21.98
2019-04-06T08:31:20.608Z,22.20
2019-04-06T08:33:24.856Z,22.47
2019-04-06T08:34:25.084Z,22.90
2019-04-06T08:36:29.246Z,23.05
2019-04-06T08:37:29.491Z,23.32
2019-04-06T08:39:33.680Z,21.32
2019-04-06T08:40:34.161Z,19.08
2019-04-06T08:42:38.103Z,20.06
2019-04-06T08:43:38.358Z,19.22
2019-04-06T08:45:42.541Z,20.06
2019-04-06T08:46:42.792Z,19.54
2019-04-06T08:48:46.983Z,20.54
2019-04-06T08:49:47.232Z,21.42
2019-04-06T08:51:51.404Z,20.55
2019-04-06T08:52:51.655Z,21.03
2019-04-06T08:54:55.935Z,22.18
2019-04-06T08:55:56.099Z,22.22
2019-04-06T08:58:00.271Z,22.94
2019-04-06T08:59:10.758Z,23.16
2019-04-06T09:01:04.715Z,23.02
2019-04-06T09:02:04.965Z,22.95
2019-04-06T09:04:09.161Z,23.10
2019-04-06T09:05:09.409Z,23.38
2019-04-06T09:07:13.698Z,24.03
2019-04-06T09:08:13.836Z,23.19
2019-04-06T09:10:06.957Z,23.83
2019-04-06T09:11:07.207Z,23.54
2019-04-06T09:13:11.382Z,23.79
2019-04-06T09:14:11.696Z,23.35
2019-04-06T09:16:15.838Z,21.01
2019-04-06T09:17:16.082Z,19.78
2019-04-06T09:19:20.278Z,22.06
2019-04-06T09:20:20.527Z,22.94
2019-04-06T09:22:24.709Z,23.31
2019-04-06T09:23:24.959Z,23.97
2019-04-06T09:25:29.160Z,23.85
2019-04-06T09:26:29.410Z,24.22
2019-04-06T09:28:33.588Z,24.09
2019-04-06T09:29:33.839Z,24.24
2019-04-06T09:31:38.128Z,24.42
2019-04-06T09:32:38.289Z,24.35
2019-04-06T09:34:42.492Z,24.67
2019-04-06T09:35:42.745Z,25.09
2019-04-06T09:37:46.929Z,25.61
2019-04-06T09:38:47.330Z,25.54
2019-04-06T09:40:51.424Z,24.37
2019-04-06T09:41:51.634Z,24.84
2019-04-06T09:43:55.974Z,24.99
2019-04-06T09:44:56.095Z,24.95
2019-04-06T09:47:00.304Z,24.46
2019-04-06T09:48:00.555Z,24.85
2019-04-06T09:49:53.690Z,21.71
2019-04-06T09:50:53.939Z,20.69
2019-04-06T09:52:58.129Z,19.78
2019-04-06T09:54:05.525Z,19.48
2019-04-06T09:56:02.760Z,19.36
2019-04-06T09:57:02.826Z,19.74
2019-04-06T09:59:07.027Z,18.54
2019-04-06T10:00:07.286Z,19.13
2019-04-06T10:02:11.475Z,19.25
2019-04-06T10:03:11.726Z,19.69
2019-04-06T10:05:15.925Z,19.39
2019-04-06T10:06:16.174Z,19.81
2019-04-06T10:08:20.366Z,19.92
2019-04-06T10:09:20.615Z,20.16
2019-04-06T10:11:24.828Z,20.99
2019-04-06T10:12:25.064Z,20.54
2019-04-06T10:14:29.505Z,22.07
2019-04-06T10:15:29.514Z,22.98
2019-04-06T10:17:33.792Z,21.72
2019-04-06T10:18:33.925Z,22.10
2019-04-06T10:20:27.063Z,23.48
2019-04-06T10:21:27.563Z,23.09
2019-04-06T10:23:31.479Z,22.07
2019-04-06T10:24:31.948Z,23.12
2019-04-06T10:26:35.925Z,21.67
2019-04-06T10:27:36.175Z,21.91
2019-04-06T10:29:48.025Z,21.96
2019-04-06T10:30:40.601Z,21.09
2019-04-06T10:32:44.808Z,20.50
2019-04-06T10:33:45.058Z,21.29
2019-04-06T10:35:49.254Z,21.47
2019-04-06T10:36:49.511Z,21.04
2019-04-06T10:38:53.684Z,21.49
2019-04-06T10:39:53.940Z,21.14
2019-04-06T10:41:58.142Z,20.91
2019-04-06T10:42:58.408Z,20.57
2019-04-06T10:45:02.634Z,20.80
2019-04-06T10:46:02.831Z,20.20
2019-04-06T10:48:07.029Z,21.82
2019-04-06T10:49:07.288Z,20.98
2019-04-06T10:51:11.493Z,21.74
2019-04-06T10:52:11.742Z,21.29
2019-04-06T10:54:15.923Z,22.43
2019-04-06T10:55:16.174Z,22.58
2019-04-06T10:57:21.387Z,21.83
2019-04-06T10:58:21.633Z,21.22
2019-04-06T11:00:14.738Z,21.98
2019-04-06T11:01:14.987Z,22.45
2019-04-06T11:03:19.179Z,22.35
2019-04-06T11:04:19.482Z,21.47
2019-04-06T11:06:23.727Z,22.00
2019-04-06T11:07:23.897Z,22.07
2019-04-06T11:09:28.143Z,22.14
2019-04-06T11:10:28.325Z,22.55
2019-04-06T11:12:32.531Z,24.69
2019-04-06T11:13:32.782Z,25.06
2019-04-06T11:15:37.210Z,23.88
2019-04-06T11:16:37.213Z,22.98
2019-04-06T11:18:41.695Z,24.09
2019-04-06T11:19:41.681Z,25.15
2019-04-06T11:21:45.886Z,27.49
2019-04-06T11:22:46.142Z,28.36
2019-04-06T11:24:50.545Z,24.40
2019-04-06T11:25:50.582Z,25.55
2019-04-06T11:27:54.779Z,24.16
2019-04-06T11:28:55.123Z,23.47
2019-04-06T11:30:59.473Z,25.57
2019-04-06T11:31:59.465Z,24.77
2019-04-06T11:34:03.675Z,22.17
2019-04-06T11:35:03.930Z,21.68
2019-04-06T11:37:08.169Z,21.74
2019-04-06T11:38:08.395Z,23.36
2019-04-06T11:40:01.508Z,25.87
2019-04-06T11:41:02.284Z,26.43
2019-04-06T11:43:05.968Z,27.24
2019-04-06T11:44:06.220Z,27.40
2019-04-06T11:46:10.402Z,27.60
2019-04-06T11:47:10.654Z,27.09
2019-04-06T11:49:14.924Z,26.28
2019-04-06T11:50:15.173Z,26.09
2019-04-06T11:52:19.403Z,26.10
2019-04-06T11:53:19.748Z,25.90
2019-04-06T11:55:23.955Z,25.50
2019-04-06T11:56:24.211Z,24.37
2019-04-06T11:58:28.469Z,26.06
2019-04-06T11:59:28.732Z,26.13
2019-04-06T12:01:33.955Z,26.33
2019-04-06T12:02:33.441Z,26.99
2019-04-06T12:04:37.676Z,27.25
2019-04-06T12:05:38.051Z,26.40
2019-04-06T12:07:42.517Z,27.04
2019-04-06T12:08:42.793Z,26.20
2019-04-06T12:10:46.820Z,27.27
2019-04-06T12:11:47.289Z,27.46
2019-04-06T12:13:51.470Z,27.54
2019-04-06T12:14:51.737Z,27.24
2019-04-06T12:16:55.932Z,25.99
2019-04-06T12:17:56.198Z,25.61
2019-04-06T12:19:49.311Z,26.06
2019-04-06T12:20:49.570Z,26.20
2019-04-06T12:22:53.757Z,26.54
2019-04-06T12:23:54.131Z,27.24
2019-04-06T12:25:58.339Z,27.54
2019-04-06T12:26:58.653Z,27.09
2019-04-06T12:29:03.109Z,26.20
2019-04-06T12:30:03.051Z,26.25
2019-04-06T12:32:07.328Z,25.51
2019-04-06T12:33:07.576Z,26.02
2019-04-06T12:35:11.917Z,24.30
2019-04-06T12:36:12.042Z,25.25
2019-04-06T12:38:16.633Z,26.21
2019-04-06T12:39:16.680Z,26.25
2019-04-06T12:41:20.895Z,26.44
2019-04-06T12:42:21.148Z,26.26
2019-04-06T12:44:25.497Z,27.12
2019-04-06T12:45:26.080Z,27.18
2019-04-06T12:47:30.166Z,25.54
2019-04-06T12:48:30.661Z,25.83
2019-04-06T12:50:23.516Z,26.54
2019-04-06T12:51:24.134Z,26.39
2019-04-06T12:53:28.214Z,26.06
2019-04-06T12:54:28.233Z,25.91
2019-04-06T12:56:32.453Z,26.01
2019-04-06T12:57:32.791Z,25.80
2019-04-06T12:59:36.929Z,24.20
2019-04-06T13:00:49.528Z,23.60
2019-04-06T13:02:41.725Z,22.57
2019-04-06T13:03:41.616Z,22.24
2019-04-06T13:05:45.934Z,21.64
2019-04-06T13:06:46.218Z,21.53
2019-04-06T13:08:50.921Z,21.07
2019-04-06T13:09:51.155Z,21.03
2019-04-06T13:11:55.582Z,22.91
2019-04-06T13:12:56.172Z,22.77
2019-04-06T13:15:00.255Z,23.17
2019-04-06T13:16:00.642Z,22.91
2019-04-06T13:18:04.819Z,22.22
2019-04-06T13:19:04.809Z,22.62
2019-04-06T13:21:09.139Z,23.90
2019-04-06T13:22:09.257Z,24.47
2019-04-06T13:24:13.453Z,24.99
2019-04-06T13:25:14.004Z,24.99
2019-04-06T13:27:17.899Z,25.20
2019-04-06T13:28:18.157Z,25.23
2019-04-06T13:30:11.251Z,25.77
2019-04-06T13:31:11.499Z,25.65
2019-04-06T13:33:15.755Z,25.35
2019-04-06T13:34:15.945Z,25.45
2019-04-06T13:36:20.148Z,25.38
2019-04-06T13:37:20.397Z,25.50
2019-04-06T13:39:24.572Z,25.18
2019-04-06T13:40:24.825Z,25.17
2019-04-06T13:42:29.212Z,25.00
2019-04-06T13:43:29.270Z,25.33
2019-04-06T13:45:33.443Z,25.67
2019-04-06T13:46:33.695Z,25.97
2019-04-06T13:48:37.892Z,25.52
2019-04-06T13:49:38.141Z,25.73
2019-04-06T13:51:42.339Z,25.58
2019-04-06T13:52:42.592Z,25.67
2019-04-06T13:54:46.768Z,25.40
2019-04-06T13:55:47.331Z,24.95
2019-04-06T13:57:51.493Z,24.69
2019-04-06T13:58:51.702Z,25.10
2019-04-06T14:00:55.692Z,26.23
2019-04-06T14:01:55.972Z,26.18
2019-04-06T14:04:00.126Z,25.76
2019-04-06T14:05:00.432Z,25.47
2019-04-06T14:07:04.581Z,25.38
2019-04-06T14:08:04.836Z,24.99
2019-04-06T14:09:57.956Z,23.94
2019-04-06T14:10:58.205Z,23.33
2019-04-06T14:13:02.519Z,22.37
2019-04-06T14:14:02.653Z,22.09
2019-04-06T14:16:06.825Z,21.19
2019-04-06T14:17:07.092Z,20.84
2019-04-06T14:19:11.578Z,20.31
2019-04-06T14:20:11.539Z,20.08
2019-04-06T14:22:15.749Z,19.94
2019-04-06T14:23:15.993Z,19.95
2019-04-06T14:25:20.191Z,19.95
2019-04-06T14:26:20.720Z,20.14
2019-04-06T14:28:24.608Z,19.99
2019-04-06T14:29:24.860Z,19.94
2019-04-06T14:31:30.596Z,19.69
2019-04-06T14:32:29.277Z,19.80
2019-04-06T14:34:33.635Z,21.29
2019-04-06T14:35:33.727Z,21.98
2019-04-06T14:37:38.134Z,22.91
2019-04-06T14:38:38.170Z,22.92
2019-04-06T14:40:31.265Z,23.04
2019-04-06T14:41:31.518Z,22.95
2019-04-06T14:43:35.711Z,22.75
2019-04-06T14:44:36.098Z,22.75
2019-04-06T14:46:40.124Z,23.10
2019-04-06T14:47:40.433Z,23.23
2019-04-06T14:49:44.568Z,23.23
2019-04-06T14:50:44.952Z,22.57
2019-04-06T14:52:49.009Z,22.58
2019-04-06T14:53:49.285Z,22.91
2019-04-06T14:55:53.595Z,23.23
2019-04-06T14:56:53.696Z,23.50
2019-04-06T14:58:57.999Z,23.76
2019-04-06T14:59:58.120Z,23.53
2019-04-06T15:02:02.293Z,23.66
2019-04-06T15:03:02.698Z,23.85
2019-04-06T15:05:07.887Z,23.39
2019-04-06T15:06:08.353Z,22.94
2019-04-06T15:08:12.418Z,23.09
2019-04-06T15:09:12.458Z,23.05
2019-04-06T15:11:16.979Z,23.17
2019-04-06T15:12:16.880Z,23.27
2019-04-06T15:14:21.078Z,23.32
2019-04-06T15:15:21.330Z,23.23
2019-04-06T15:17:25.627Z,22.80
2019-04-06T15:18:25.811Z,23.07
2019-04-06T15:20:19.279Z,23.19
2019-04-06T15:21:19.127Z,23.05
2019-04-06T15:23:23.339Z,22.33
2019-04-06T15:24:23.591Z,21.62
2019-04-06T15:26:27.783Z,20.69
2019-04-06T15:27:28.187Z,20.36
2019-04-06T15:29:32.228Z,19.80
2019-04-06T15:30:32.633Z,19.55
2019-04-06T15:32:37.662Z,19.25
2019-04-06T15:33:37.906Z,19.04
2019-04-06T15:35:42.089Z,18.75
2019-04-06T15:36:42.334Z,18.66
2019-04-06T15:38:46.529Z,18.70
2019-04-06T15:39:46.770Z,18.60
2019-04-06T15:41:56.626Z,18.67
2019-04-06T15:42:51.430Z,18.63
2019-04-06T15:44:55.376Z,18.57
2019-04-06T15:45:55.886Z,18.48
2019-04-06T15:47:59.790Z,18.11
2019-04-06T15:49:00.244Z,18.15
2019-04-06T15:51:04.221Z,17.95
2019-04-06T15:52:10.663Z,17.90
2019-04-06T15:54:08.648Z,17.68
2019-04-06T15:55:08.895Z,17.55
2019-04-06T15:57:13.151Z,17.33
2019-04-06T15:58:14.764Z,17.25
2019-04-06T16:00:06.412Z,17.21
2019-04-06T16:01:06.661Z,17.06
2019-04-06T16:03:10.826Z,17.26
2019-04-06T16:04:11.069Z,17.25
2019-04-06T16:06:15.247Z,17.06
2019-04-06T16:07:15.511Z,17.21
2019-04-06T16:09:19.998Z,17.63
2019-04-06T16:10:19.916Z,17.66
2019-04-06T16:12:25.112Z,18.21
2019-04-06T16:13:25.423Z,18.52
2019-04-06T16:15:29.709Z,18.85
2019-04-06T16:16:29.788Z,18.91
2019-04-06T16:18:33.947Z,18.88
2019-04-06T16:19:34.253Z,18.85
2019-04-06T16:21:38.825Z,19.04
2019-04-06T16:22:38.625Z,19.11
2019-04-06T16:24:42.813Z,19.02
2019-04-06T16:25:43.051Z,19.10
2019-04-06T16:27:47.230Z,19.08
2019-04-06T16:28:47.712Z,19.14
2019-04-06T16:30:51.963Z,18.95
2019-04-06T16:31:52.252Z,18.88
2019-04-06T16:33:56.441Z,18.80
2019-04-06T16:34:56.412Z,18.73
2019-04-06T16:37:01.523Z,18.27
2019-04-06T16:38:02.180Z,18.07
2019-04-06T16:39:55.543Z,17.89
2019-04-06T16:40:55.127Z,17.68
2019-04-06T16:42:59.572Z,17.56
2019-04-06T16:43:59.535Z,17.36
2019-04-06T16:46:03.713Z,17.15
2019-04-06T16:47:03.958Z,17.11
2019-04-06T16:49:08.114Z,16.89
2019-04-06T16:50:08.356Z,16.83
2019-04-06T16:52:12.624Z,16.86
2019-04-06T16:53:12.778Z,16.82
2019-04-06T16:55:16.994Z,16.66
2019-04-06T16:56:17.261Z,16.60
2019-04-06T16:58:21.584Z,16.50
2019-04-06T16:59:22.104Z,16.50
2019-04-06T17:01:26.158Z,16.48
2019-04-06T17:02:26.166Z,16.42
2019-04-06T17:04:30.458Z,16.31
2019-04-06T17:05:30.496Z,16.34
2019-04-06T17:07:34.937Z,16.35
2019-04-06T17:08:34.914Z,16.34
2019-04-06T17:10:28.000Z,16.31
2019-04-06T17:11:28.247Z,16.15
2019-04-06T17:13:32.412Z,16.21
2019-04-06T17:14:32.667Z,16.23
2019-04-06T17:16:37.242Z,16.04
2019-04-06T17:17:37.368Z,15.97
2019-04-06T17:19:41.545Z,15.76
2019-04-06T17:20:41.491Z,15.71
2019-04-06T17:22:46.242Z,15.59
2019-04-06T17:23:46.023Z,15.50
2019-04-06T17:25:50.178Z,15.51
2019-04-06T17:26:50.430Z,15.60
2019-04-06T17:28:54.604Z,15.64
2019-04-06T17:29:55.224Z,15.62
2019-04-06T17:31:59.017Z,15.62
2019-04-06T17:32:59.350Z,15.67
2019-04-06T17:35:03.772Z,15.51
2019-04-06T17:36:04.134Z,15.54
2019-04-06T17:38:07.874Z,15.36
2019-04-06T17:39:08.361Z,15.41
2019-04-06T17:41:12.843Z,15.39
2019-04-06T17:42:12.494Z,15.39
2019-04-06T17:44:16.660Z,15.39
2019-04-06T17:45:17.055Z,15.41
2019-04-06T17:47:21.102Z,15.39
2019-04-06T17:48:21.351Z,15.43
2019-04-06T17:50:14.431Z,15.27
2019-04-06T17:51:14.676Z,15.14
2019-04-06T17:53:19.157Z,15.09
2019-04-06T17:54:19.093Z,15.09
2019-04-06T17:56:23.244Z,15.16
2019-04-06T17:57:23.493Z,15.19
2019-04-06T17:59:27.670Z,15.13
2019-04-06T18:00:27.988Z,15.13
2019-04-06T18:02:32.300Z,14.99
2019-04-06T18:03:32.463Z,15.06
2019-04-06T18:05:36.636Z,15.13
2019-04-06T18:06:36.920Z,15.13
2019-04-06T18:08:41.506Z,15.11
2019-04-06T18:09:41.531Z,15.19
2019-04-06T18:11:46.105Z,14.98
2019-04-06T18:12:45.949Z,14.89
2019-04-06T18:14:50.557Z,14.80
2019-04-06T18:15:51.210Z,14.80
2019-04-06T18:17:54.953Z,14.72
2019-04-06T18:18:54.860Z,14.69
2019-04-06T18:20:59.362Z,14.52
2019-04-06T18:21:59.550Z,14.57
2019-04-06T18:24:03.646Z,14.51
2019-04-06T18:25:04.147Z,14.55
2019-04-06T18:27:08.200Z,14.43
2019-04-06T18:28:08.191Z,14.27
2019-04-06T18:30:01.292Z,14.14
2019-04-06T18:31:01.535Z,14.00
2019-04-06T18:33:05.703Z,14.15
2019-04-06T18:34:05.941Z,14.02
2019-04-06T18:36:10.092Z,14.00
2019-04-06T18:37:10.330Z,13.91
2019-04-06T18:39:14.505Z,13.88
2019-04-06T18:40:14.741Z,13.79
2019-04-06T18:42:18.892Z,13.70
2019-04-06T18:43:19.558Z,13.57
2019-04-06T18:45:23.314Z,13.55
2019-04-06T18:46:23.577Z,13.57
2019-04-06T18:48:28.029Z,13.63
2019-04-06T18:49:28.312Z,13.60
2019-04-06T18:51:32.111Z,13.66
2019-04-06T18:52:32.795Z,13.63
2019-04-06T18:54:36.999Z,13.60
2019-04-06T18:55:36.947Z,13.62
2019-04-06T18:57:41.336Z,13.62
2019-04-06T18:58:41.153Z,13.55
2019-04-06T19:00:34.588Z,13.69
2019-04-06T19:01:34.906Z,13.66
2019-04-06T19:03:39.019Z,13.77
2019-04-06T19:04:38.883Z,13.71
2019-04-06T19:06:43.197Z,13.85
2019-04-06T19:07:43.294Z,13.73
2019-04-06T19:09:47.481Z,13.77
2019-04-06T19:10:47.710Z,13.64
2019-04-06T19:12:51.863Z,13.57
2019-04-06T19:13:52.098Z,13.67
2019-04-06T19:15:56.268Z,13.59
2019-04-06T19:16:56.965Z,13.57
2019-04-06T19:19:00.667Z,13.46
2019-04-06T19:20:01.302Z,13.45
2019-04-06T19:22:05.075Z,13.33
2019-04-06T19:23:05.315Z,13.29
2019-04-06T19:25:09.488Z,13.25
2019-04-06T19:26:09.727Z,13.26
2019-04-06T19:28:14.366Z,13.22
2019-04-06T19:29:14.116Z,13.23
2019-04-06T19:31:18.289Z,13.08
2019-04-06T19:32:18.548Z,13.03
2019-04-06T19:34:22.772Z,12.95
2019-04-06T19:35:22.946Z,12.89
2019-04-06T19:37:27.114Z,12.83
2019-04-06T19:38:27.352Z,12.90
2019-04-06T19:40:20.449Z,12.74
2019-04-06T19:41:20.685Z,12.71
2019-04-06T19:43:25.191Z,12.67
2019-04-06T19:44:25.091Z,12.60
2019-04-06T19:46:29.493Z,12.60
2019-04-06T19:47:29.485Z,12.62
2019-04-06T19:49:34.000Z,12.46
2019-04-06T19:50:33.871Z,12.42
2019-04-06T19:52:38.041Z,12.24
2019-04-06T19:53:38.279Z,12.16